.
WxDataArchive / Data Records for 2006-09-01
2006-08-31 September 2006 2006-09-02

Data Records for Friday, 01 September 2006

Time	Temp	Chill	HIndex	Humid	Dewpt	 Wind 	HiWind	WindDir	Rain 	Barom 
-----	----	-----	------	-----	-----	------	------	-------	-----	----- 
00:00	65.2	65.2	65.2	73	56.3	3	9	112	0.00	30.078 
00:05	65.2	65.2	65.2	74	56.7	3	9	112	0.00	30.078 
00:10	65.0	65.0	65.0	73	56.1	3	10	90	0.00	30.078 
00:15	65.0	65.0	65.0	74	56.5	2	5	112	0.00	30.075 
00:20	64.8	64.8	64.8	75	56.7	3	7	112	0.00	30.075 
00:25	64.8	64.8	64.8	76	57.0	3	6	90	0.00	30.075 
00:30	64.8	64.8	64.8	76	57.0	3	6	112	0.00	30.074 
00:35	64.8	64.8	64.8	76	57.0	3	7	112	0.00	30.074 
00:40	64.8	64.8	64.8	76	57.0	3	6	90	0.00	30.074 
00:45	64.7	64.7	64.7	76	57.0	3	9	90	0.00	30.075 
00:50	64.7	64.7	64.7	76	57.0	2	6	112	0.00	30.075 
00:55	64.7	64.7	64.7	77	57.3	2	5	90	0.00	30.075 
01:00	64.5	64.5	64.5	77	57.1	2	6	90	0.00	30.074 
01:05	64.5	64.5	64.5	77	57.1	2	11	90	0.00	30.074 
01:10	64.5	64.5	64.5	77	57.1	1	3	112	0.00	30.074 
01:15	64.3	64.3	64.3	78	57.3	3	5	90	0.00	30.075 
01:20	64.3	64.3	64.3	78	57.3	1	4	112	0.00	30.075 
01:25	64.3	64.3	64.3	78	57.3	2	6	68	0.00	30.075 
01:30	64.3	64.3	64.3	78	57.3	2	4	90	0.00	30.073 
01:35	64.5	64.5	64.5	78	57.5	3	9	90	0.00	30.073 
01:40	64.3	64.3	64.3	79	57.6	2	4	45	0.00	30.073 
01:45	64.3	64.3	64.3	79	57.6	2	5	90	0.00	30.069 
01:50	64.3	64.3	64.3	79	57.6	3	6	90	0.00	30.069 
01:55	64.3	64.3	64.3	80	58.0	1	5	90	0.00	30.069 
02:00	64.3	64.3	64.3	80	58.0	2	4	112	0.00	30.063 
02:05	64.3	64.3	64.3	80	58.0	2	7	90	0.00	30.063 
02:10	64.3	64.3	64.3	80	58.0	2	5	90	0.00	30.063 
02:15	64.5	64.5	64.5	80	58.2	2	5	90	0.00	30.062 
02:20	64.5	64.5	64.5	80	58.2	1	5	90	0.00	30.062 
02:25	64.5	64.5	64.5	80	58.2	2	5	90	0.00	30.062 
02:30	64.5	64.5	64.5	81	58.5	1	4	112	0.00	30.059 
02:35	64.5	64.5	64.5	81	58.5	2	9	112	0.00	30.059 
02:40	64.7	64.7	64.7	81	58.7	2	5	90	0.00	30.059 
02:45	64.7	64.7	64.7	81	58.7	2	4	90	0.00	30.057 
02:50	64.7	64.7	64.7	81	58.7	2	6	90	0.00	30.057 
02:55	64.7	64.7	64.7	81	58.7	2	6	112	0.00	30.057 
03:00	64.7	64.7	64.7	81	58.7	3	10	90	0.00	30.055 
03:05	64.7	64.7	64.7	81	58.7	2	5	112	0.00	30.055 
03:10	64.5	64.5	64.5	81	58.5	3	7	90	0.00	30.055 
03:15	64.5	64.5	64.5	82	58.9	2	6	112	0.00	30.053 
03:20	64.5	64.5	64.5	82	58.9	3	7	90	0.00	30.053 
03:25	64.5	64.5	64.5	82	58.9	2	5	90	0.00	30.053 
03:30	64.5	64.5	64.5	82	58.9	2	5	90	0.00	30.054 
03:35	64.5	64.5	64.5	82	58.9	3	9	112	0.00	30.054 
03:40	64.5	64.5	64.5	83	59.2	1	4	90	0.00	30.054 
03:45	64.3	64.3	64.3	83	59.0	1	6	112	0.00	30.055 
03:50	64.3	64.3	64.3	83	59.0	3	6	90	0.00	30.055 
03:55	64.3	64.3	64.3	83	59.0	2	6	68	0.00	30.055 
04:00	64.3	64.3	64.3	84	59.4	2	5	68	0.00	30.055 
04:05	64.2	64.2	64.2	84	59.3	2	4	112	0.00	30.055 
04:10	64.2	64.2	64.2	84	59.3	3	8	90	0.00	30.055 
04:15	64.2	64.2	64.2	84	59.3	3	6	112	0.00	30.051 
04:20	64.2	64.2	64.2	84	59.3	2	6	90	0.00	30.051 
04:25	64.2	64.2	64.2	85	59.6	2	5	90	0.00	30.051 
04:30	64.2	64.2	64.2	85	59.6	2	10	112	0.00	30.053 
04:35	64.2	64.2	64.2	86	59.9	3	6	90	0.00	30.053 
04:40	64.2	64.2	64.2	86	59.9	3	5	90	0.00	30.053 
04:45	64.0	64.0	64.0	86	59.7	2	6	112	0.00	30.052 
04:50	64.0	64.0	64.0	86	59.7	2	7	90	0.00	30.052 
04:55	64.0	64.0	64.0	86	59.7	2	6	90	0.00	30.052 
05:00	64.0	64.0	64.0	86	59.7	2	6	90	0.00	30.053 
05:05	63.9	63.9	63.9	87	59.9	2	6	90	0.00	30.053 
05:10	63.9	63.9	63.9	87	59.9	2	5	112	0.00	30.053 
05:15	63.9	63.9	63.9	87	59.9	2	7	90	0.00	30.058 
05:20	63.9	63.9	63.9	87	59.9	2	6	112	0.00	30.058 
05:25	63.9	63.9	63.9	88	60.3	2	5	90	0.00	30.058 
05:30	63.9	63.9	63.9	88	60.3	2	6	90	0.00	30.059 
05:35	63.7	63.7	63.7	88	60.1	2	5	90	0.00	30.059 
05:40	63.7	63.7	63.7	88	60.1	2	5	90	0.00	30.059 
05:45	63.7	63.7	63.7	88	60.1	2	6	112	0.00	30.063 
05:50	63.7	63.7	63.7	88	60.1	3	6	90	0.00	30.063 
05:55	63.5	63.5	63.5	89	60.2	2	5	90	0.00	30.063 
06:00	63.5	63.5	63.5	89	60.2	2	6	112	0.00	30.069 
06:05	63.4	63.4	63.4	90	60.4	3	9	90	0.00	30.069 
06:10	63.4	63.4	63.4	90	60.4	2	5	68	0.00	30.069 
06:15	63.2	63.2	63.2	90	60.2	2	5	90	0.00	30.075 
06:20	63.2	63.2	63.2	91	60.5	2	4	112	0.00	30.075 
06:25	63.2	63.2	63.2	91	60.5	2	9	90	0.00	30.075 
06:30	63.1	63.1	63.1	91	60.4	2	5	90	0.00	30.074 
06:35	63.1	63.1	63.1	91	60.4	2	6	112	0.00	30.074 
06:40	62.9	62.9	62.9	92	60.5	2	5	90	0.00	30.074 
06:45	62.9	62.9	62.9	92	60.5	2	7	90	0.00	30.074 
06:50	62.9	62.9	62.9	92	60.5	2	6	90	0.00	30.074 
06:55	62.7	62.7	62.7	92	60.3	1	5	90	0.00	30.074 
07:00	62.7	62.7	62.7	92	60.3	1	4	45	0.00	30.077 
07:05	62.7	62.7	62.7	92	60.3	1	4	112	0.00	30.077 
07:10	62.7	62.7	62.7	92	60.3	1	4	90	0.00	30.077 
07:15	62.7	62.7	62.7	92	60.3	2	5	90	0.00	30.079 
07:20	62.7	62.7	62.7	92	60.3	2	5	90	0.00	30.079 
07:25	62.6	62.6	62.6	92	60.2	1	4	90	0.00	30.079 
07:30	62.6	62.6	62.6	92	60.2	2	6	90	0.00	30.080 
07:35	62.6	62.6	62.6	92	60.2	2	6	90	0.00	30.080 
07:40	62.6	62.6	62.6	92	60.2	2	6	68	0.00	30.080 
07:45	62.6	62.6	62.6	92	60.2	2	7	90	0.00	30.081 
07:50	62.6	62.6	62.6	92	60.2	2	5	90	0.00	30.081 
07:55	62.6	62.6	62.6	92	60.2	2	6	112	0.00	30.081 
08:00	62.6	62.6	62.6	92	60.2	2	5	90	0.00	30.083 
08:05	62.6	62.6	62.6	92	60.2	2	5	90	0.00	30.083 
08:10	62.6	62.6	62.6	92	60.2	2	5	112	0.00	30.083 
08:15	62.4	62.4	62.4	92	60.0	2	3	45	0.01	30.092 
08:20	62.4	62.4	62.4	92	60.0	2	6	90	0.00	30.092 
08:25	62.4	62.4	62.4	92	60.0	2	4	112	0.00	30.092 
08:30	62.4	62.4	62.4	92	60.0	2	6	90	0.00	30.095 
08:35	62.4	62.4	62.4	93	60.3	2	4	112	0.00	30.095 
08:40	62.4	62.4	62.4	93	60.3	2	5	90	0.00	30.095 
08:45	62.4	62.4	62.4	93	60.3	2	4	90	0.00	30.089 
08:50	62.4	62.4	62.4	93	60.3	1	3	90	0.00	30.089 
08:55	62.4	62.4	62.4	93	60.3	2	4	112	0.00	30.089 
09:00	62.4	62.4	62.4	93	60.3	2	4	90	0.00	30.095 
09:05	62.6	62.6	62.6	93	60.5	1	6	90	0.00	30.095 
09:10	62.6	62.6	62.6	93	60.5	1	5	112	0.00	30.095 
09:15	62.6	62.6	62.6	93	60.5	2	9	90	0.00	30.093 
09:20	62.7	62.7	62.7	93	60.6	2	4	68	0.00	30.093 
09:25	62.7	62.7	62.7	93	60.6	2	6	90	0.00	30.093 
09:30	62.7	62.7	62.7	93	60.6	2	5	90	0.00	30.091 
09:35	62.7	62.7	62.7	93	60.6	2	4	112	0.00	30.091 
09:40	62.7	62.7	62.7	93	60.6	1	4	90	0.00	30.091 
09:45	62.7	62.7	62.7	92	60.3	3	7	112	0.00	30.086 
09:50	62.9	62.9	62.9	92	60.5	2	4	90	0.00	30.086 
09:55	62.9	62.9	62.9	93	60.8	1	4	68	0.00	30.086 
10:00	63.1	63.1	63.1	92	60.7	1	3	90	0.00	30.090 
10:05	63.1	63.1	63.1	92	60.7	2	6	90	0.00	30.090 
10:10	63.2	63.2	63.2	92	60.8	2	5	90	0.00	30.090 
10:15	63.2	63.2	63.2	92	60.8	2	4	90	0.00	30.095 
10:20	63.2	63.2	63.2	92	60.8	2	4	112	0.00	30.095 
10:25	63.4	63.4	63.4	91	60.7	3	7	112	0.00	30.095 
10:30	63.9	63.9	63.9	91	61.2	2	6	112	0.00	30.095 
10:35	64.5	64.5	64.5	90	61.5	3	11	90	0.00	30.095 
10:40	65.3	65.3	65.3	86	61.0	4	10	90	0.00	30.095 
10:45	66.3	66.3	66.3	87	62.3	3	10	90	0.00	30.091 
10:50	66.9	66.9	66.9	84	61.9	4	10	90	0.00	30.091 
10:55	67.3	67.3	67.3	81	61.3	4	9	90	0.00	30.091 
11:00	67.1	67.1	67.1	83	61.8	3	6	90	0.00	30.093 
11:05	67.1	67.1	67.1	83	61.8	2	5	112	0.00	30.093 
11:10	66.8	66.8	66.8	83	61.5	2	5	90	0.00	30.093 
11:15	66.8	66.8	66.8	83	61.5	2	6	90	0.00	30.094 
11:20	66.6	66.6	66.6	82	60.9	2	4	90	0.00	30.094 
11:25	66.6	66.6	66.6	84	61.6	2	4	90	0.00	30.094 
11:30	66.4	66.4	66.4	85	61.7	2	6	112	0.00	30.098 
11:35	66.1	66.1	66.1	85	61.5	2	5	90	0.00	30.098 
11:40	66.0	66.0	66.0	84	61.0	3	7	90	0.01	30.098 
11:45	66.1	66.1	66.1	83	60.8	2	4	90	0.00	30.102 
11:50	66.1	66.1	66.1	84	61.1	2	4	112	0.00	30.102 
11:55	66.1	66.1	66.1	82	60.4	2	5	112	0.00	30.102 
12:00	66.0	66.0	66.0	82	60.3	3	6	112	0.00	30.110 
12:05	66.1	66.1	66.1	82	60.4	2	6	90	0.00	30.110 
12:10	66.1	66.1	66.1	83	60.8	3	6	90	0.00	30.110 
12:15	66.4	66.4	66.4	83	61.1	1	6	112	0.00	30.096 
12:20	66.8	66.8	66.8	83	61.5	3	7	112	0.00	30.096 
12:25	66.8	66.8	66.8	81	60.8	2	7	90	0.00	30.096 
12:30	67.1	67.1	67.1	83	61.8	1	4	90	0.00	30.100 
12:35	67.3	67.3	67.3	80	60.9	2	4	112	0.00	30.100 
12:40	67.6	67.6	67.6	82	61.9	1	5	112	0.00	30.100 
12:45	67.9	67.9	67.9	81	61.8	1	4	68	0.00	30.094 
12:50	67.9	67.9	67.9	80	61.5	3	5	90	0.00	30.094 
12:55	67.9	67.9	67.9	80	61.5	2	4	68	0.00	30.094 
13:00	68.1	68.1	68.1	80	61.7	2	9	112	0.00	30.095 
13:05	67.9	67.9	67.9	78	60.8	2	7	68	0.00	30.095 
13:10	67.9	67.9	67.9	80	61.5	2	5	90	0.00	30.095 
13:15	67.8	67.8	67.8	77	60.3	3	10	90	0.00	30.096 
13:20	67.8	67.8	67.8	79	61.0	3	7	90	0.00	30.096 
13:25	68.1	68.1	68.1	78	61.0	1	4	135	0.00	30.096 
13:30	68.4	68.4	68.4	79	61.6	1	4	90	0.00	30.093 
13:35	68.8	68.8	68.8	78	61.7	2	5	45	0.00	30.093 
13:40	68.9	68.9	68.9	77	61.4	1	6	90	0.00	30.093 
13:45	68.9	68.9	68.9	77	61.4	3	6	112	0.00	30.092 
13:50	68.8	68.8	68.8	75	60.5	3	6	68	0.00	30.092 
13:55	68.8	68.8	68.8	74	60.2	3	10	90	0.00	30.092 
14:00	68.9	68.9	68.9	77	61.4	2	5	112	0.00	30.089 
14:05	68.9	68.9	68.9	76	61.0	3	7	112	0.00	30.089 
14:10	69.1	69.1	69.1	75	60.8	2	4	90	0.00	30.089 
14:15	69.1	69.1	69.1	74	60.5	2	8	90	0.00	30.086 
14:20	69.3	69.3	69.3	74	60.6	2	5	90	0.00	30.086 
14:25	69.3	69.3	69.3	72	59.9	4	13	112	0.00	30.086 
14:30	69.4	69.4	69.4	72	60.0	4	13	90	0.00	30.089 
14:35	69.8	69.8	69.8	70	59.6	3	7	90	0.00	30.089 
14:40	69.8	69.8	69.8	67	58.3	5	10	90	0.00	30.089 
14:45	70.1	70.1	70.1	66	58.2	4	10	90	0.00	30.084 
14:50	70.4	70.4	70.4	65	58.1	3	9	90	0.00	30.084 
14:55	70.6	70.6	70.6	66	58.7	3	7	90	0.00	30.084 
15:00	70.4	70.4	70.4	65	58.1	5	15	90	0.00	30.082 
15:05	70.4	70.4	70.4	66	58.5	3	10	90	0.00	30.082 
15:10	70.4	70.4	70.4	65	58.1	6	16	90	0.00	30.082 
15:15	70.4	70.4	70.4	65	58.1	3	7	90	0.00	30.077 
15:20	70.8	70.8	70.8	65	58.4	4	11	90	0.00	30.077 
15:25	70.8	70.8	70.8	65	58.4	5	11	90	0.00	30.077 
15:30	70.8	70.8	70.8	63	57.6	4	10	90	0.00	30.074 
15:35	71.3	71.3	71.3	64	58.5	4	11	112	0.00	30.074 
15:40	71.5	71.5	71.5	65	59.1	4	10	90	0.00	30.074 
15:45	71.5	71.5	71.5	63	58.2	5	10	90	0.00	30.066 
15:50	71.3	71.3	71.3	65	58.9	4	10	90	0.00	30.066 
15:55	71.5	71.5	71.5	60	56.9	3	7	112	0.00	30.066 
16:00	71.3	71.3	71.3	58	55.7	4	10	90	0.00	30.068 
16:05	71.3	71.3	71.3	55	54.3	5	11	90	0.00	30.068 
16:10	71.3	71.3	71.3	57	55.3	4	9	90	0.00	30.068 
16:15	71.5	71.5	71.5	58	55.9	3	10	68	0.00	30.069 
16:20	71.5	71.5	71.5	58	55.9	2	7	90	0.00	30.069 
16:25	71.5	71.5	71.5	59	56.4	3	6	90	0.00	30.069 
16:30	71.6	71.6	71.6	58	56.0	3	7	112	0.00	30.067 
16:35	71.8	71.8	71.8	58	56.2	3	6	90	0.00	30.067 
16:40	71.6	71.6	71.6	57	55.5	4	11	112	0.00	30.067 
16:45	71.3	71.3	71.3	58	55.7	4	12	90	0.00	30.065 
16:50	71.3	71.3	71.3	59	56.2	3	9	90	0.00	30.065 
16:55	71.1	71.1	71.1	57	55.1	3	7	90	0.00	30.065 
17:00	71.1	71.1	71.1	58	55.6	4	9	90	0.00	30.073 
17:05	70.9	70.9	70.9	60	56.3	3	7	90	0.00	30.073 
17:10	70.8	70.8	70.8	56	54.3	4	11	90	0.00	30.073 
17:15	70.6	70.6	70.6	56	54.1	4	14	90	0.00	30.074 
17:20	70.6	70.6	70.6	58	55.1	3	10	112	0.00	30.074 
17:25	70.6	70.6	70.6	59	55.6	3	9	112	0.00	30.074 
17:30	70.8	70.8	70.8	58	55.3	3	7	90	0.00	30.076 
17:35	70.8	70.8	70.8	60	56.2	3	10	90	0.00	30.076 
17:40	70.6	70.6	70.6	59	55.6	3	7	112	0.00	30.076 
17:45	70.4	70.4	70.4	58	54.9	4	11	90	0.00	30.075 
17:50	70.3	70.3	70.3	58	54.8	4	12	90	0.00	30.075 
17:55	70.3	70.3	70.3	62	56.7	2	6	90	0.00	30.075 
18:00	70.1	70.1	70.1	61	56.0	3	9	112	0.00	30.069 
18:05	70.1	70.1	70.1	62	56.5	3	10	90	0.00	30.069 
18:10	70.1	70.1	70.1	62	56.5	3	5	90	0.00	30.069 
18:15	69.9	69.9	69.9	62	56.3	3	7	112	0.00	30.069 
18:20	69.9	69.9	69.9	62	56.3	3	11	112	0.00	30.069 
18:25	69.8	69.8	69.8	64	57.1	3	7	112	0.00	30.069 
18:30	69.6	69.6	69.6	61	55.5	3	9	90	0.00	30.069 
18:35	69.4	69.4	69.4	63	56.2	2	5	112	0.00	30.069 
18:40	69.4	69.4	69.4	62	55.8	3	5	68	0.00	30.069 
18:45	69.1	69.1	69.1	62	55.5	4	11	90	0.00	30.073 
18:50	68.8	68.8	68.8	64	56.1	3	6	90	0.00	30.073 
18:55	68.4	68.4	68.4	62	54.9	4	9	90	0.00	30.073 
19:00	68.4	68.4	68.4	64	55.7	3	10	90	0.00	30.074 
19:05	68.9	68.9	68.9	63	55.8	3	10	90	0.00	30.074 
19:10	69.3	69.3	69.3	64	56.6	3	7	90	0.00	30.074 
19:15	68.9	68.9	68.9	64	56.2	2	6	112	0.00	30.068 
19:20	68.6	68.6	68.6	65	56.4	3	7	90	0.00	30.068 
19:25	68.3	68.3	68.3	66	56.5	3	10	90	0.00	30.068 
19:30	68.3	68.3	68.3	67	56.9	3	10	90	0.00	30.075 
19:35	68.1	68.1	68.1	67	56.7	2	6	90	0.00	30.075 
19:40	67.8	67.8	67.8	67	56.4	3	10	112	0.00	30.075 
19:45	67.4	67.4	67.4	68	56.5	3	6	90	0.00	30.079 
19:50	67.1	67.1	67.1	69	56.6	3	10	90	0.00	30.079 
19:55	66.9	66.9	66.9	69	56.4	3	6	112	0.00	30.079 
20:00	66.6	66.6	66.6	70	56.5	2	5	112	0.00	30.080 
20:05	66.3	66.3	66.3	71	56.6	2	5	90	0.00	30.080 
20:10	66.0	66.0	66.0	72	56.7	2	7	90	0.00	30.080 
20:15	65.8	65.8	65.8	72	56.5	2	11	112	0.00	30.081 
20:20	65.6	65.6	65.6	73	56.7	2	4	90	0.00	30.081 
20:25	65.3	65.3	65.3	73	56.4	2	5	90	0.00	30.081 
20:30	65.2	65.2	65.2	74	56.7	2	4	90	0.00	30.085 
20:35	65.0	65.0	65.0	75	56.9	1	3	112	0.00	30.085 
20:40	64.8	64.8	64.8	75	56.7	2	5	90	0.00	30.085 
20:45	64.7	64.7	64.7	76	57.0	1	4	90	0.00	30.090 
20:50	64.5	64.5	64.5	76	56.8	1	4	90	0.00	30.090 
20:55	64.3	64.3	64.3	76	56.6	2	6	90	0.00	30.090 
21:00	64.3	64.3	64.3	77	56.9	1	6	68	0.00	30.094 
21:05	64.3	64.3	64.3	77	56.9	1	3	90	0.00	30.094 
21:10	64.3	64.3	64.3	77	56.9	1	3	112	0.00	30.094 
21:15	64.3	64.3	64.3	77	56.9	1	3	90	0.00	30.096 
21:20	64.5	64.5	64.5	77	57.1	2	5	90	0.00	30.096 
21:25	64.5	64.5	64.5	77	57.1	2	4	112	0.00	30.096 
21:30	64.5	64.5	64.5	77	57.1	2	4	90	0.00	30.096 
21:35	64.5	64.5	64.5	77	57.1	2	6	90	0.00	30.096 
21:40	64.5	64.5	64.5	77	57.1	2	5	90	0.00	30.096 
21:45	64.5	64.5	64.5	77	57.1	2	5	112	0.00	30.098 
21:50	64.5	64.5	64.5	77	57.1	2	4	112	0.00	30.098 
21:55	64.5	64.5	64.5	77	57.1	2	7	90	0.00	30.098 
22:00	64.5	64.5	64.5	77	57.1	2	7	112	0.00	30.100 
22:05	64.5	64.5	64.5	77	57.1	1	3	90	0.00	30.100 
22:10	64.5	64.5	64.5	77	57.1	2	7	90	0.00	30.100 
22:15	64.5	64.5	64.5	77	57.1	1	5	112	0.00	30.103 
22:20	64.3	64.3	64.3	77	56.9	2	5	90	0.00	30.103 
22:25	64.3	64.3	64.3	78	57.3	0	2	45	0.00	30.103 
22:30	64.2	64.2	64.2	78	57.2	1	4	45	0.00	30.104 
22:35	64.0	64.0	64.0	79	57.4	1	5	90	0.00	30.104 
22:40	63.9	63.9	63.9	79	57.3	1	3	90	0.00	30.104 
22:45	63.9	63.9	63.9	79	57.3	1	3	90	0.00	30.098 
22:50	63.7	63.7	63.7	80	57.4	1	3	68	0.00	30.098 
22:55	63.7	63.7	63.7	80	57.4	1	4	90	0.00	30.098 
23:00	63.5	63.5	63.5	80	57.2	1	5	90	0.00	30.098 
23:05	63.5	63.5	63.5	80	57.2	1	3	90	0.00	30.098 
23:10	63.5	63.5	63.5	80	57.2	1	3	112	0.00	30.098 
23:15	63.4	63.4	63.4	80	57.1	2	7	112	0.00	30.098 
23:20	63.5	63.5	63.5	80	57.2	2	6	90	0.00	30.098 
23:25	63.4	63.4	63.4	81	57.5	1	4	112	0.00	30.098 
23:30	63.4	63.4	63.4	81	57.5	2	4	90	0.00	30.096 
23:35	63.4	63.4	63.4	80	57.1	2	5	90	0.00	30.096 
23:40	63.4	63.4	63.4	81	57.5	1	4	90	0.00	30.096 
23:45	63.4	63.4	63.4	81	57.5	1	3	90	0.00	30.095 
23:50	63.2	63.2	63.2	81	57.3	1	4	112	0.00	30.095 
23:55	63.2	63.2	63.2	81	57.3	1	3	90	0.00	30.095 

CoCoRaHS
IN-AL-39
A2 Web Hosting
Creative Commons License
GoDaddy
Look for:

loaded 2017-10-17 18:14:45 • last modified 2010-11-18 10:43:29
Privacy PolicyDisclaimer
• wx.awcolley.com is powered by PmWiki v.2002016 •
• all content (unless otherwise noted) © 2017 A W Colley